createdAt,value
2022-08-03T04:46:01.221Z,17.87
2022-08-03T04:47:02.193Z,17.84
2022-08-03T04:48:03.044Z,17.84
2022-08-03T04:49:02.246Z,17.79
2022-08-03T04:50:02.161Z,17.87
2022-08-03T04:51:02.165Z,17.93
2022-08-03T04:52:02.142Z,17.96
2022-08-03T04:53:02.126Z,17.99
2022-08-03T04:54:02.124Z,17.97
2022-08-03T04:55:02.114Z,18.03
2022-08-03T04:56:02.115Z,18.10
2022-08-03T04:57:02.084Z,18.14
2022-08-03T04:58:02.085Z,18.17
2022-08-03T04:59:02.064Z,18.18
2022-08-03T05:00:03.597Z,18.50
2022-08-03T05:01:02.065Z,18.84
2022-08-03T05:02:02.053Z,18.91
2022-08-03T05:03:02.019Z,18.88
2022-08-03T05:04:02.009Z,19.02
2022-08-03T05:05:01.997Z,19.25
2022-08-03T05:06:11.070Z,19.36
2022-08-03T05:07:11.746Z,19.43
2022-08-03T05:08:01.970Z,19.55
2022-08-03T05:09:01.948Z,19.76
2022-08-03T05:10:03.402Z,19.81
2022-08-03T05:11:01.942Z,19.81
2022-08-03T05:12:01.925Z,19.77
2022-08-03T05:13:01.911Z,19.74
2022-08-03T05:14:01.903Z,19.86
2022-08-03T05:15:01.891Z,19.92
2022-08-03T05:16:01.892Z,19.96
2022-08-03T05:17:01.863Z,20.03
2022-08-03T05:18:01.858Z,20.01
2022-08-03T05:19:01.846Z,20.06
2022-08-03T05:20:01.837Z,20.06
2022-08-03T05:21:01.839Z,20.11
2022-08-03T05:22:01.817Z,20.18
2022-08-03T05:23:01.800Z,20.20
2022-08-03T05:24:01.795Z,20.26
2022-08-03T05:25:01.785Z,20.29
2022-08-03T05:26:01.789Z,20.23
2022-08-03T05:27:01.767Z,20.17
2022-08-03T05:28:01.754Z,20.08
2022-08-03T05:29:01.743Z,20.01
2022-08-03T05:30:31.685Z,19.92
2022-08-03T05:31:01.747Z,19.83
2022-08-03T05:32:06.243Z,19.84
2022-08-03T05:33:01.712Z,19.86
2022-08-03T05:34:01.689Z,19.88
2022-08-03T05:35:57.589Z,19.94
2022-08-03T05:36:08.275Z,20.06
2022-08-03T05:37:01.660Z,20.28
2022-08-03T05:38:01.641Z,20.39
2022-08-03T05:39:02.936Z,20.52
2022-08-03T05:40:01.623Z,20.58
2022-08-03T05:41:23.688Z,20.57
2022-08-03T05:42:01.620Z,20.67
2022-08-03T05:43:01.593Z,20.76
2022-08-03T05:44:01.582Z,20.82
2022-08-03T05:45:01.587Z,20.88
2022-08-03T05:46:11.664Z,20.91
2022-08-03T05:47:01.574Z,20.98
2022-08-03T05:48:01.534Z,21.06
2022-08-03T05:49:01.644Z,21.10
2022-08-03T05:50:01.507Z,21.10
2022-08-03T05:51:01.522Z,21.12
2022-08-03T05:52:14.344Z,21.10
2022-08-03T05:53:01.500Z,21.19
2022-08-03T05:54:01.481Z,21.24
2022-08-03T05:55:01.472Z,21.28
2022-08-03T05:56:03.559Z,21.24
2022-08-03T05:57:01.541Z,21.27
2022-08-03T05:58:01.423Z,21.34
2022-08-03T05:59:11.556Z,21.40
2022-08-03T06:00:01.434Z,21.46
2022-08-03T06:01:01.413Z,21.47
2022-08-03T06:02:01.551Z,21.54
2022-08-03T06:03:01.403Z,21.58
2022-08-03T06:04:01.356Z,21.67
2022-08-03T06:05:01.350Z,21.79
2022-08-03T06:06:01.345Z,21.86
2022-08-03T06:07:01.355Z,21.94
2022-08-03T06:08:01.314Z,21.94
2022-08-03T06:09:01.313Z,21.94
2022-08-03T06:10:35.737Z,21.92
2022-08-03T06:11:01.294Z,21.94
2022-08-03T06:12:01.284Z,21.96
2022-08-03T06:13:01.269Z,21.96
2022-08-03T06:14:01.246Z,22.02
2022-08-03T06:15:01.241Z,22.06
2022-08-03T06:16:01.227Z,22.15
2022-08-03T06:17:01.242Z,22.25
2022-08-03T06:18:02.165Z,22.30
2022-08-03T06:19:01.197Z,22.33
2022-08-03T06:20:01.180Z,22.42
2022-08-03T06:21:14.921Z,22.46
2022-08-03T06:22:01.179Z,22.46
2022-08-03T06:23:01.514Z,22.47
2022-08-03T06:24:01.139Z,22.54
2022-08-03T06:25:04.099Z,22.61
2022-08-03T06:26:01.124Z,22.68
2022-08-03T06:27:01.124Z,22.77
2022-08-03T06:28:01.089Z,22.83
2022-08-03T06:29:01.086Z,22.77
2022-08-03T06:30:01.058Z,22.83
2022-08-03T06:31:01.193Z,22.90
2022-08-03T06:32:01.069Z,22.94
2022-08-03T06:33:01.045Z,22.92
2022-08-03T06:34:32.237Z,22.97
2022-08-03T06:35:01.032Z,23.04
2022-08-03T06:36:01.002Z,23.09
2022-08-03T06:37:02.378Z,23.16
2022-08-03T06:38:00.982Z,23.27
2022-08-03T06:39:00.979Z,23.27
2022-08-03T06:40:00.963Z,23.32
2022-08-03T06:41:00.958Z,23.36
2022-08-03T06:42:00.965Z,23.46
2022-08-03T06:43:00.934Z,23.48
2022-08-03T06:44:02.968Z,23.50
2022-08-03T06:45:00.921Z,23.50
2022-08-03T06:46:00.898Z,23.50
2022-08-03T06:47:00.907Z,23.51
2022-08-03T06:48:00.882Z,23.55
2022-08-03T06:49:00.895Z,23.65
2022-08-03T06:50:16.207Z,23.69
2022-08-03T06:51:00.854Z,23.75
2022-08-03T06:52:03.226Z,23.80
2022-08-03T06:53:00.835Z,23.83
2022-08-03T06:54:00.814Z,23.90
2022-08-03T06:55:00.812Z,23.95
2022-08-03T06:56:00.796Z,23.93
2022-08-03T06:57:00.789Z,23.93
2022-08-03T06:58:03.592Z,23.97
2022-08-03T06:59:00.764Z,24.05
2022-08-03T07:00:06.427Z,24.13
2022-08-03T07:01:00.794Z,24.16
2022-08-03T07:02:00.760Z,24.21
2022-08-03T07:03:00.738Z,24.21
2022-08-03T07:04:00.713Z,24.27
2022-08-03T07:05:00.702Z,24.31
2022-08-03T07:06:00.682Z,24.37
2022-08-03T07:07:00.681Z,24.46
2022-08-03T07:08:00.682Z,24.53
2022-08-03T07:09:00.664Z,24.61
2022-08-03T07:10:00.644Z,24.71
2022-08-03T07:11:00.639Z,24.77
2022-08-03T07:12:00.627Z,24.80
2022-08-03T07:13:00.634Z,24.88
2022-08-03T07:14:00.599Z,25.02
2022-08-03T07:15:02.277Z,25.08
2022-08-03T07:16:00.579Z,25.17
2022-08-03T07:17:00.576Z,25.23
2022-08-03T07:18:00.570Z,25.28
2022-08-03T07:19:00.557Z,25.23
2022-08-03T07:20:00.551Z,25.24
2022-08-03T07:21:00.529Z,25.23
2022-08-03T07:22:04.208Z,25.25
2022-08-03T07:23:00.557Z,25.20
2022-08-03T07:24:00.496Z,25.23
2022-08-03T07:25:00.487Z,25.23
2022-08-03T07:26:00.472Z,25.35
2022-08-03T07:27:00.467Z,25.30
2022-08-03T07:28:00.492Z,25.33
2022-08-03T07:29:00.454Z,25.33
2022-08-03T07:30:00.445Z,25.40
2022-08-03T07:31:00.424Z,25.50
2022-08-03T07:32:00.425Z,25.51
2022-08-03T07:33:00.423Z,25.57
2022-08-03T07:34:00.389Z,25.60
2022-08-03T07:35:01.361Z,25.70
2022-08-03T07:36:00.370Z,25.70
2022-08-03T07:37:00.359Z,25.77
2022-08-03T07:38:00.355Z,25.69
2022-08-03T07:39:00.336Z,25.70
2022-08-03T07:40:00.341Z,25.73
2022-08-03T07:41:00.323Z,25.76
2022-08-03T07:42:00.305Z,25.85
2022-08-03T07:43:00.309Z,25.87
2022-08-03T07:44:00.278Z,25.88
2022-08-03T07:45:00.300Z,25.92
2022-08-03T07:46:00.263Z,26.06
2022-08-03T07:47:00.508Z,26.13
2022-08-03T07:48:00.251Z,26.13
2022-08-03T07:49:00.319Z,26.26
2022-08-03T07:50:00.216Z,26.33
2022-08-03T07:51:00.212Z,26.35
2022-08-03T07:52:00.196Z,26.30
2022-08-03T07:53:00.213Z,26.32
2022-08-03T07:54:00.175Z,26.35
2022-08-03T07:55:00.173Z,26.33
2022-08-03T07:56:00.153Z,26.23
2022-08-03T07:57:00.143Z,26.20
2022-08-03T07:58:00.153Z,26.09
2022-08-03T07:59:00.125Z,26.05
2022-08-03T08:00:01.737Z,26.06
2022-08-03T08:01:00.180Z,26.17
2022-08-03T08:02:00.095Z,26.29
2022-08-03T08:03:00.094Z,26.36
2022-08-03T08:04:00.091Z,26.47
2022-08-03T08:05:05.256Z,26.57
2022-08-03T08:06:00.051Z,26.67
2022-08-03T08:07:00.040Z,26.72
2022-08-03T08:08:00.040Z,26.72
2022-08-03T08:09:00.125Z,26.77
2022-08-03T08:10:00.030Z,26.84
2022-08-03T08:11:00.017Z,26.87
2022-08-03T08:11:59.993Z,26.88
2022-08-03T08:12:59.986Z,26.85
2022-08-03T08:13:59.964Z,26.95
2022-08-03T08:14:59.956Z,27.06
2022-08-03T08:15:59.936Z,27.25
2022-08-03T08:17:02.356Z,27.28
2022-08-03T08:17:59.938Z,27.34
2022-08-03T08:18:59.907Z,27.36
2022-08-03T08:19:59.894Z,27.28
2022-08-03T08:20:59.884Z,27.25
2022-08-03T08:22:02.332Z,27.21
2022-08-03T08:23:01.421Z,27.19
2022-08-03T08:24:01.462Z,27.19
2022-08-03T08:25:01.328Z,27.13
2022-08-03T08:25:59.830Z,27.24
2022-08-03T08:26:59.823Z,27.34
2022-08-03T08:28:29.014Z,27.39
2022-08-03T08:28:59.808Z,27.49
2022-08-03T08:30:07.258Z,27.66
2022-08-03T08:30:59.785Z,27.74
2022-08-03T08:31:59.771Z,27.77
2022-08-03T08:32:59.769Z,27.79
2022-08-03T08:34:04.326Z,27.84
2022-08-03T08:34:59.746Z,27.79
2022-08-03T08:35:59.716Z,27.62
2022-08-03T08:36:59.747Z,27.62
2022-08-03T08:37:59.708Z,27.74
2022-08-03T08:38:59.698Z,27.54
2022-08-03T08:39:59.701Z,27.60
2022-08-03T08:40:59.669Z,27.63
2022-08-03T08:41:59.653Z,27.65
2022-08-03T08:42:59.667Z,27.84
2022-08-03T08:44:00.221Z,27.99
2022-08-03T08:44:59.632Z,28.07
2022-08-03T08:45:59.609Z,28.07
2022-08-03T08:46:59.602Z,28.03
2022-08-03T08:48:01.810Z,28.11
2022-08-03T08:48:59.649Z,28.22
2022-08-03T08:50:09.908Z,28.27
2022-08-03T08:50:59.571Z,28.22
2022-08-03T08:52:01.364Z,28.15
2022-08-03T08:52:59.537Z,28.14
2022-08-03T08:53:59.538Z,28.02
2022-08-03T08:55:00.196Z,27.99
2022-08-03T08:56:00.657Z,28.11
2022-08-03T08:56:59.502Z,28.31
2022-08-03T08:57:59.487Z,28.43
2022-08-03T08:58:59.495Z,28.51
2022-08-03T08:59:59.465Z,28.37
2022-08-03T09:00:59.511Z,28.44
2022-08-03T09:01:59.441Z,28.54
2022-08-03T09:02:59.439Z,28.73
2022-08-03T09:03:59.433Z,28.96
2022-08-03T09:05:01.934Z,29.11
2022-08-03T09:05:59.406Z,29.14
2022-08-03T09:07:19.130Z,29.24
2022-08-03T09:07:59.393Z,29.27
2022-08-03T09:08:59.389Z,29.31
2022-08-03T09:10:05.968Z,29.23
2022-08-03T09:10:59.366Z,29.26
2022-08-03T09:12:20.020Z,29.57
2022-08-03T09:12:59.346Z,29.86
2022-08-03T09:13:59.356Z,29.95
2022-08-03T09:15:15.937Z,29.79
2022-08-03T09:16:00.986Z,29.83
2022-08-03T09:16:59.298Z,29.83
2022-08-03T09:17:59.291Z,29.55
2022-08-03T09:18:59.290Z,29.71
2022-08-03T09:20:03.118Z,29.80
2022-08-03T09:21:03.810Z,29.94
2022-08-03T09:21:59.246Z,30.51
2022-08-03T09:22:59.234Z,30.34
2022-08-03T09:24:02.731Z,30.61
2022-08-03T09:25:21.999Z,31.20
2022-08-03T09:25:59.996Z,31.51
2022-08-03T09:26:59.193Z,31.56
2022-08-03T09:27:59.174Z,31.62
2022-08-03T09:29:04.121Z,31.43
2022-08-03T09:29:59.159Z,32.22
2022-08-03T09:30:59.145Z,32.62
2022-08-03T09:31:59.489Z,33.04
2022-08-03T09:32:59.127Z,33.12
2022-08-03T09:33:59.119Z,33.29
2022-08-03T09:34:59.101Z,33.12
2022-08-03T09:35:59.143Z,33.09
2022-08-03T09:36:59.078Z,32.77
2022-08-03T09:38:11.925Z,32.78
2022-08-03T09:38:59.079Z,33.35
2022-08-03T09:39:59.043Z,33.82
2022-08-03T09:41:00.640Z,34.30
2022-08-03T09:41:59.033Z,34.24
2022-08-03T09:42:59.013Z,33.86
2022-08-03T09:43:59.024Z,33.68
2022-08-03T09:44:58.993Z,33.26
2022-08-03T09:45:58.987Z,33.47
2022-08-03T09:46:58.969Z,33.49
2022-08-03T09:47:58.968Z,33.84
2022-08-03T09:48:58.998Z,33.65
2022-08-03T09:49:58.949Z,33.50
2022-08-03T09:51:13.593Z,33.15
2022-08-03T09:52:31.951Z,32.81
2022-08-03T09:52:58.914Z,33.03
2022-08-03T09:54:00.336Z,32.45
2022-08-03T09:54:58.890Z,32.55
2022-08-03T09:56:34.915Z,33.12
2022-08-03T09:56:58.878Z,33.51
2022-08-03T09:57:58.865Z,32.97
2022-08-03T09:58:58.863Z,33.07
2022-08-03T10:00:04.739Z,33.19
2022-08-03T10:00:58.985Z,33.03
2022-08-03T10:01:58.821Z,32.79
2022-08-03T10:02:58.831Z,33.44
2022-08-03T10:04:03.529Z,34.03
2022-08-03T10:04:58.796Z,34.81
2022-08-03T10:06:00.041Z,35.07
2022-08-03T10:06:58.768Z,35.33
2022-08-03T10:07:58.792Z,35.29
2022-08-03T10:08:58.757Z,35.00
2022-08-03T10:10:28.959Z,35.03
2022-08-03T10:10:58.875Z,35.02
2022-08-03T10:11:58.723Z,35.55
2022-08-03T10:12:58.702Z,36.00
2022-08-03T10:13:58.745Z,35.22
2022-08-03T10:14:58.687Z,34.12
2022-08-03T10:16:22.503Z,33.75
2022-08-03T10:16:58.664Z,33.68
2022-08-03T10:17:58.666Z,32.85
2022-08-03T10:18:58.645Z,32.85
2022-08-03T10:19:58.654Z,33.11
2022-08-03T10:20:58.660Z,32.93
2022-08-03T10:21:58.621Z,32.96
2022-08-03T10:22:58.605Z,32.48
2022-08-03T10:23:58.596Z,32.51
2022-08-03T10:24:58.597Z,32.57
2022-08-03T10:25:58.587Z,32.75
2022-08-03T10:26:58.564Z,33.06
2022-08-03T10:27:58.590Z,33.47
2022-08-03T10:28:58.556Z,34.03
2022-08-03T10:29:58.556Z,34.65
2022-08-03T10:30:58.517Z,35.09
2022-08-03T10:31:58.824Z,35.52
2022-08-03T10:32:58.498Z,35.66
2022-08-03T10:33:58.500Z,36.00
2022-08-03T10:34:59.836Z,36.53
2022-08-03T10:35:58.471Z,36.71
2022-08-03T10:36:58.462Z,36.39
2022-08-03T10:37:58.787Z,36.71
2022-08-03T10:38:58.439Z,36.43
2022-08-03T10:39:58.452Z,35.96
2022-08-03T10:40:59.197Z,35.09
2022-08-03T10:41:58.414Z,34.96
2022-08-03T10:42:58.396Z,34.82
2022-08-03T10:43:58.394Z,34.69
2022-08-03T10:44:58.392Z,35.36
2022-08-03T10:45:58.381Z,35.70
2022-08-03T10:46:58.356Z,34.46
2022-08-03T10:47:58.354Z,33.87
2022-08-03T10:48:58.378Z,33.29
2022-08-03T10:49:58.342Z,33.72
2022-08-03T10:50:58.317Z,33.49
2022-08-03T10:51:58.316Z,33.78
2022-08-03T10:52:58.297Z,34.24
2022-08-03T10:53:58.291Z,34.21
2022-08-03T10:54:58.290Z,34.00
2022-08-03T10:55:58.274Z,34.19
2022-08-03T10:56:58.428Z,33.75
2022-08-03T10:57:59.094Z,34.85
2022-08-03T10:58:58.241Z,35.45
2022-08-03T10:59:58.253Z,34.73
2022-08-03T11:00:58.262Z,33.72
2022-08-03T11:02:00.730Z,34.24
2022-08-03T11:02:58.195Z,34.84
2022-08-03T11:03:58.194Z,34.27
2022-08-03T11:04:58.199Z,34.47
2022-08-03T11:05:58.175Z,34.97
2022-08-03T11:06:58.162Z,35.07
2022-08-03T11:07:58.154Z,35.58
2022-08-03T11:08:58.136Z,35.71
2022-08-03T11:09:58.147Z,36.25
2022-08-03T11:10:58.120Z,35.96
2022-08-03T11:11:58.123Z,36.01
2022-08-03T11:12:58.093Z,35.82
2022-08-03T11:13:58.099Z,35.89
2022-08-03T11:14:58.097Z,36.05
2022-08-03T11:16:00.056Z,35.48
2022-08-03T11:16:58.064Z,34.73
2022-08-03T11:17:58.056Z,34.25
2022-08-03T11:18:58.044Z,34.65
2022-08-03T11:19:58.631Z,34.85
2022-08-03T11:20:58.018Z,34.99
2022-08-03T11:21:58.013Z,35.15
2022-08-03T11:22:57.999Z,35.74
2022-08-03T11:24:04.082Z,35.40
2022-08-03T11:24:58.004Z,34.65
2022-08-03T11:25:57.975Z,33.94
2022-08-03T11:26:57.961Z,33.95
2022-08-03T11:27:57.953Z,34.40
2022-08-03T11:28:57.940Z,34.99
2022-08-03T11:29:57.951Z,34.44
2022-08-03T11:30:57.939Z,34.72
2022-08-03T11:31:57.915Z,34.27
2022-08-03T11:32:57.898Z,34.50
2022-08-03T11:33:57.895Z,35.52
2022-08-03T11:34:57.901Z,36.22
2022-08-03T11:35:57.873Z,36.65
2022-08-03T11:36:57.856Z,35.74
2022-08-03T11:38:03.208Z,35.63
2022-08-03T11:38:57.868Z,35.37
2022-08-03T11:39:57.835Z,35.52
2022-08-03T11:40:57.840Z,36.08
2022-08-03T11:41:57.812Z,36.01
2022-08-03T11:42:57.801Z,35.16
2022-08-03T11:43:57.795Z,35.77
2022-08-03T11:44:57.787Z,36.37
2022-08-03T11:45:57.794Z,36.49
2022-08-03T11:46:57.763Z,36.31
2022-08-03T11:47:57.753Z,36.00
2022-08-03T11:48:57.775Z,36.80
2022-08-03T11:49:57.739Z,37.02
2022-08-03T11:50:57.737Z,35.90
2022-08-03T11:51:57.716Z,35.44
2022-08-03T11:52:57.696Z,36.19
2022-08-03T11:53:57.695Z,35.87
2022-08-03T11:54:57.692Z,35.90
2022-08-03T11:55:57.688Z,36.20
2022-08-03T11:56:57.658Z,35.87
2022-08-03T11:59:01.490Z,35.59
2022-08-03T11:59:24.246Z,35.99
2022-08-03T11:59:57.637Z,35.96
2022-08-03T12:00:57.635Z,35.90
2022-08-03T12:01:57.612Z,36.41
2022-08-03T12:02:57.726Z,36.05
2022-08-03T12:03:57.595Z,35.80
2022-08-03T12:04:57.583Z,35.66
2022-08-03T12:05:57.589Z,34.80
2022-08-03T12:06:57.560Z,34.00
2022-08-03T12:08:03.579Z,34.77
2022-08-03T12:08:57.545Z,35.23
2022-08-03T12:09:58.374Z,35.26
2022-08-03T12:10:57.538Z,34.87
2022-08-03T12:11:59.983Z,34.35
2022-08-03T12:12:57.501Z,34.64
2022-08-03T12:14:46.369Z,34.78
2022-08-03T12:14:57.493Z,35.15
2022-08-03T12:15:57.498Z,35.66
2022-08-03T12:16:57.472Z,35.84
2022-08-03T12:17:58.056Z,36.41
2022-08-03T12:18:57.447Z,35.50
2022-08-03T12:19:57.436Z,35.44
2022-08-03T12:20:57.457Z,35.87
2022-08-03T12:21:57.680Z,36.35
2022-08-03T12:22:57.406Z,36.23
2022-08-03T12:23:57.400Z,36.05
2022-08-03T12:24:57.383Z,35.66
2022-08-03T12:25:57.394Z,35.75
2022-08-03T12:26:59.470Z,35.48
2022-08-03T12:27:57.362Z,35.58
2022-08-03T12:28:57.343Z,35.52
2022-08-03T12:29:59.000Z,36.23
2022-08-03T12:30:57.347Z,36.57
2022-08-03T12:31:57.340Z,36.50
2022-08-03T12:32:57.306Z,36.87
2022-08-03T12:33:59.045Z,35.90
2022-08-03T12:34:57.293Z,35.55
2022-08-03T12:35:57.299Z,35.63
2022-08-03T12:36:57.268Z,35.97
2022-08-03T12:37:57.263Z,36.68
2022-08-03T12:38:57.248Z,37.20
2022-08-03T12:40:02.272Z,37.00
2022-08-03T12:40:57.249Z,37.86
2022-08-03T12:41:57.224Z,38.00
2022-08-03T12:42:57.210Z,37.81
2022-08-03T12:43:57.204Z,36.88
2022-08-03T12:44:57.194Z,36.62
2022-08-03T12:45:57.198Z,36.66
2022-08-03T12:46:57.170Z,35.58
2022-08-03T12:47:57.180Z,35.70
2022-08-03T12:48:57.203Z,36.39
2022-08-03T12:49:57.145Z,36.80
2022-08-03T12:50:57.147Z,36.87
2022-08-03T12:51:57.127Z,36.44
2022-08-03T12:52:57.110Z,36.44
2022-08-03T12:53:57.103Z,37.02
2022-08-03T12:54:57.093Z,37.06
2022-08-03T12:56:05.201Z,36.19
2022-08-03T12:56:57.080Z,35.43
2022-08-03T12:57:57.063Z,34.91
2022-08-03T12:58:57.052Z,34.91
2022-08-03T12:59:57.042Z,34.77
2022-08-03T13:00:57.028Z,34.35
2022-08-03T13:01:57.175Z,34.25
2022-08-03T13:03:26.715Z,34.05
2022-08-03T13:03:57.007Z,33.91
2022-08-03T13:04:56.991Z,34.21
2022-08-03T13:05:56.984Z,33.98
2022-08-03T13:07:03.089Z,33.98
2022-08-03T13:07:56.968Z,34.24
2022-08-03T13:08:56.951Z,34.32
2022-08-03T13:09:56.944Z,34.40
2022-08-03T13:10:56.927Z,34.43
2022-08-03T13:12:02.119Z,34.16
2022-08-03T13:12:56.915Z,33.75
2022-08-03T13:13:56.905Z,33.26
2022-08-03T13:14:56.899Z,33.35
2022-08-03T13:15:56.887Z,33.53
2022-08-03T13:16:56.885Z,34.08
2022-08-03T13:17:56.870Z,34.54
2022-08-03T13:18:56.855Z,35.02
2022-08-03T13:19:56.853Z,34.49
2022-08-03T13:20:56.829Z,34.05
2022-08-03T13:22:04.219Z,34.19
2022-08-03T13:23:00.603Z,34.35
2022-08-03T13:23:56.804Z,34.75
2022-08-03T13:24:56.791Z,34.94
2022-08-03T13:25:56.784Z,34.91
2022-08-03T13:26:56.787Z,35.09
2022-08-03T13:28:05.097Z,35.58
2022-08-03T13:28:56.759Z,35.29
2022-08-03T13:29:56.743Z,34.59
2022-08-03T13:30:56.734Z,34.25
2022-08-03T13:31:56.741Z,33.66
2022-08-03T13:32:56.712Z,33.94
2022-08-03T13:33:56.707Z,33.86
2022-08-03T13:34:56.693Z,33.60
2022-08-03T13:35:56.680Z,32.99
2022-08-03T13:37:08.838Z,32.70
2022-08-03T13:37:56.748Z,32.60
2022-08-03T13:38:56.680Z,32.79
2022-08-03T13:39:58.675Z,32.81
2022-08-03T13:40:56.639Z,32.99
2022-08-03T13:41:56.642Z,33.31
2022-08-03T13:42:56.617Z,33.49
2022-08-03T13:44:18.533Z,33.53
2022-08-03T13:44:56.598Z,33.42
2022-08-03T13:45:56.865Z,33.39
2022-08-03T13:46:56.597Z,33.47
2022-08-03T13:47:56.579Z,33.61
2022-08-03T13:48:56.559Z,33.68
2022-08-03T13:50:00.156Z,33.79
2022-08-03T13:50:56.540Z,33.53
2022-08-03T13:51:56.545Z,33.53
2022-08-03T13:52:56.515Z,33.32
2022-08-03T13:53:56.511Z,33.34
2022-08-03T13:54:56.500Z,33.63
2022-08-03T13:55:56.489Z,33.60
2022-08-03T13:58:01.103Z,33.49
2022-08-03T13:58:23.710Z,33.56
2022-08-03T13:58:56.461Z,33.49
2022-08-03T13:59:56.444Z,33.53
2022-08-03T14:00:56.447Z,33.75
2022-08-03T14:01:56.500Z,33.31
2022-08-03T14:03:02.872Z,33.31
2022-08-03T14:03:56.450Z,33.41
2022-08-03T14:04:56.405Z,33.50
2022-08-03T14:05:56.386Z,33.28
2022-08-03T14:06:56.387Z,33.42
2022-08-03T14:07:58.262Z,33.28
2022-08-03T14:09:00.347Z,33.26
2022-08-03T14:09:56.346Z,33.42
2022-08-03T14:10:56.347Z,33.66
2022-08-03T14:12:07.719Z,33.66
2022-08-03T14:12:56.349Z,33.38
2022-08-03T14:13:56.340Z,33.49
2022-08-03T14:14:59.615Z,33.66
2022-08-03T14:15:56.290Z,33.68
2022-08-03T14:16:56.289Z,33.81
2022-08-03T14:17:56.284Z,33.87
2022-08-03T14:18:56.269Z,33.71
2022-08-03T14:19:56.250Z,33.78
2022-08-03T14:20:57.984Z,33.91
2022-08-03T14:22:06.179Z,33.63
2022-08-03T14:22:56.247Z,33.07
2022-08-03T14:23:56.209Z,32.79
2022-08-03T14:24:56.206Z,32.62
2022-08-03T14:25:56.194Z,32.79
2022-08-03T14:27:04.478Z,32.97
2022-08-03T14:27:56.190Z,32.99
2022-08-03T14:28:56.165Z,32.96
2022-08-03T14:29:56.158Z,32.92
2022-08-03T14:30:56.247Z,33.15
2022-08-03T14:32:11.529Z,33.35
2022-08-03T14:33:00.644Z,33.50
2022-08-03T14:33:56.113Z,33.49
2022-08-03T14:34:56.109Z,33.26
2022-08-03T14:35:56.088Z,32.78
2022-08-03T14:36:56.086Z,33.00
2022-08-03T14:37:56.086Z,33.21
2022-08-03T14:39:00.820Z,33.26
2022-08-03T14:40:00.270Z,33.26
2022-08-03T14:40:56.051Z,33.22
2022-08-03T14:41:56.030Z,33.03
2022-08-03T14:42:56.042Z,33.14
2022-08-03T14:44:01.451Z,33.29
2022-08-03T14:45:00.737Z,33.41
2022-08-03T14:45:55.999Z,33.69
2022-08-03T14:46:55.986Z,33.73
2022-08-03T14:50:31.595Z,33.88
2022-08-03T14:50:50.318Z,34.00
2022-08-03T14:50:55.531Z,33.56
2022-08-03T14:51:54.157Z,33.26
2022-08-03T14:52:53.558Z,33.26
2022-08-03T14:53:53.561Z,33.21
2022-08-03T14:54:53.544Z,33.37
2022-08-03T14:55:53.582Z,33.32
2022-08-03T14:56:53.516Z,33.42
2022-08-03T14:57:53.505Z,33.63
2022-08-03T14:58:53.504Z,33.61
2022-08-03T14:59:56.174Z,33.23
2022-08-03T15:00:53.470Z,32.85
2022-08-03T15:02:04.244Z,33.03
2022-08-03T15:02:53.502Z,33.18
2022-08-03T15:03:53.465Z,33.31
2022-08-03T15:04:53.425Z,33.54
2022-08-03T15:05:53.449Z,33.82
2022-08-03T15:06:53.408Z,33.95
2022-08-03T15:07:53.408Z,33.73
2022-08-03T15:09:21.169Z,33.69
2022-08-03T15:09:53.390Z,33.39
2022-08-03T15:10:53.371Z,33.32
2022-08-03T15:11:53.363Z,33.44
2022-08-03T15:12:53.354Z,33.04
2022-08-03T15:13:53.364Z,33.04
2022-08-03T15:14:53.337Z,33.16
2022-08-03T15:15:53.337Z,33.35
2022-08-03T15:16:53.310Z,33.16
2022-08-03T15:17:59.818Z,33.19
2022-08-03T15:18:53.311Z,33.23
2022-08-03T15:20:01.317Z,32.94
2022-08-03T15:20:53.281Z,32.79
2022-08-03T15:21:53.264Z,32.79
2022-08-03T15:22:53.248Z,32.59
2022-08-03T15:23:53.258Z,32.72
2022-08-03T15:24:53.228Z,32.84
2022-08-03T15:26:29.292Z,32.94
2022-08-03T15:26:53.217Z,32.99
2022-08-03T15:28:03.906Z,32.85
2022-08-03T15:28:53.213Z,32.87
2022-08-03T15:30:08.809Z,32.93
2022-08-03T15:30:53.184Z,32.97
2022-08-03T15:31:53.168Z,33.21
2022-08-03T15:32:53.154Z,33.16
2022-08-03T15:33:53.159Z,33.21
2022-08-03T15:34:53.138Z,33.18
2022-08-03T15:35:53.212Z,33.32
2022-08-03T15:36:53.109Z,33.14
2022-08-03T15:37:53.114Z,33.16
2022-08-03T15:38:53.178Z,33.39
2022-08-03T15:39:59.938Z,33.53
2022-08-03T15:40:53.080Z,33.38
2022-08-03T15:41:53.069Z,33.00
2022-08-03T15:42:53.051Z,33.00
2022-08-03T15:43:53.061Z,33.07
2022-08-03T15:44:53.054Z,33.11
2022-08-03T15:46:53.025Z,33.19
2022-08-03T15:47:53.012Z,33.21
2022-08-03T15:48:53.009Z,33.07
2022-08-03T15:49:52.996Z,32.92
2022-08-03T15:50:52.974Z,32.87
2022-08-03T15:51:52.971Z,32.93
2022-08-03T15:52:52.956Z,32.94
2022-08-03T15:53:52.958Z,32.88
2022-08-03T15:54:52.936Z,32.85
2022-08-03T15:55:52.932Z,32.62
2022-08-03T15:56:52.923Z,32.38
2022-08-03T15:59:04.449Z,32.32
2022-08-03T15:59:17.630Z,31.99
2022-08-03T15:59:52.891Z,31.91
2022-08-03T16:00:52.900Z,31.99
2022-08-03T16:01:52.991Z,32.07
2022-08-03T16:02:55.786Z,32.29
2022-08-03T16:03:52.890Z,32.43
2022-08-03T16:04:52.835Z,32.47
2022-08-03T16:05:52.828Z,32.65
2022-08-03T16:06:52.821Z,32.74
2022-08-03T16:08:02.721Z,32.85
2022-08-03T16:08:52.815Z,32.88
2022-08-03T16:09:52.792Z,32.93
2022-08-03T16:10:52.845Z,32.93
2022-08-03T16:11:52.771Z,32.81
2022-08-03T16:12:52.753Z,32.85
2022-08-03T16:14:14.559Z,32.63
2022-08-03T16:14:53.723Z,32.45
2022-08-03T16:15:52.730Z,32.35
2022-08-03T16:16:53.606Z,32.13
2022-08-03T16:17:52.711Z,32.26
2022-08-03T16:18:52.711Z,32.30
2022-08-03T16:19:54.878Z,32.40
2022-08-03T16:20:52.679Z,32.44
2022-08-03T16:21:52.672Z,32.63
2022-08-03T16:22:52.658Z,32.75
2022-08-03T16:23:52.668Z,32.74
2022-08-03T16:24:52.640Z,32.78
2022-08-03T16:25:52.679Z,32.94
2022-08-03T16:26:52.615Z,33.01
2022-08-03T16:28:07.072Z,32.92
2022-08-03T16:28:52.600Z,32.75
2022-08-03T16:29:52.594Z,32.52
2022-08-03T16:30:52.584Z,32.43
2022-08-03T16:31:52.827Z,32.40
2022-08-03T16:32:52.581Z,32.22
2022-08-03T16:33:52.615Z,32.30
2022-08-03T16:34:52.539Z,32.32
2022-08-03T16:35:52.552Z,32.41
2022-08-03T16:36:52.522Z,32.55
2022-08-03T16:37:56.215Z,32.65
2022-08-03T16:38:52.555Z,32.69
2022-08-03T16:39:52.567Z,32.74
2022-08-03T16:40:52.509Z,32.62
2022-08-03T16:41:54.042Z,32.78
2022-08-03T16:42:52.463Z,32.85
2022-08-03T16:43:52.454Z,32.81
2022-08-03T16:44:52.454Z,32.82
2022-08-03T16:45:52.433Z,32.87
2022-08-03T16:46:52.441Z,32.81
2022-08-03T16:48:01.521Z,32.79
2022-08-03T16:48:52.404Z,32.82
2022-08-03T16:49:54.012Z,32.65
2022-08-03T16:50:52.378Z,32.55
2022-08-03T16:51:52.369Z,32.55
2022-08-03T16:52:52.361Z,32.50
2022-08-03T16:54:07.868Z,32.56
2022-08-03T16:54:53.601Z,32.62
2022-08-03T16:55:54.201Z,32.62
2022-08-03T16:56:52.318Z,32.65
2022-08-03T16:57:58.747Z,32.70
2022-08-03T16:58:52.307Z,32.65
2022-08-03T16:59:52.310Z,32.67
2022-08-03T17:00:52.297Z,32.66
2022-08-03T17:01:52.324Z,32.67
2022-08-03T17:02:52.260Z,32.69
2022-08-03T17:04:02.197Z,32.72
2022-08-03T17:04:52.284Z,32.55
2022-08-03T17:05:52.410Z,32.43
2022-08-03T17:06:52.220Z,32.28
2022-08-03T17:07:53.919Z,32.25
2022-08-03T17:08:55.227Z,32.23
2022-08-03T17:09:52.215Z,32.15
2022-08-03T17:10:52.177Z,32.15
2022-08-03T17:11:52.174Z,31.96
2022-08-03T17:12:52.189Z,32.07
2022-08-03T17:13:52.157Z,32.14
2022-08-03T17:14:52.158Z,32.07
2022-08-03T17:15:58.110Z,32.07
2022-08-03T17:16:54.570Z,32.18
2022-08-03T17:17:53.751Z,32.22
2022-08-03T17:18:52.154Z,32.22
2022-08-03T17:19:54.044Z,32.10
2022-08-03T17:20:52.097Z,31.93
2022-08-03T17:21:52.075Z,31.81
2022-08-03T17:22:52.059Z,31.85
2022-08-03T17:23:52.063Z,31.80
2022-08-03T17:24:52.053Z,31.62
2022-08-03T17:26:02.540Z,31.58
2022-08-03T17:26:52.027Z,31.53
2022-08-03T17:28:48.393Z,31.54
2022-08-03T17:28:57.830Z,31.46
2022-08-03T17:29:52.064Z,31.43
2022-08-03T17:30:52.000Z,31.36
2022-08-03T17:31:51.974Z,31.23
2022-08-03T17:32:57.378Z,31.20
2022-08-03T17:33:54.925Z,31.17
2022-08-03T17:34:51.995Z,31.10
2022-08-03T17:35:51.950Z,31.01
2022-08-03T17:37:07.289Z,30.86
2022-08-03T17:37:58.693Z,30.86
2022-08-03T17:38:52.834Z,30.86
2022-08-03T17:39:59.918Z,30.88